Time;durP1;ratioP1;P1;durP2;ratioP2;P2;SDS_P1;SDS_P2;PMS_P1;PMS_P2;Temp;Humidity;BMP_temperature;BMP_pressure;BME280_temperature;BME280_humidity;BME280_pressure;Samples;Min_cycle;Max_cycle;Signal;HPM_P1;HPM_P2
2023/08/13 00:00:46;;;;;;;11.27;7.40;;;;;;;27.03;53.80;101448.44;6151889;23;20345;-81
2023/08/13 00:03:13;;;;;;;11.25;7.18;;;;;;;26.91;53.82;101409.38;6185172;23;20025;-81
2023/08/13 00:05:40;;;;;;;11.98;7.30;;;;;;;27.13;53.62;101452.53;6149451;23;20023;-79
2023/08/13 00:08:07;;;;;;;10.93;7.57;;;;;;;26.36;53.99;101360.22;6156877;23;20071;-79
2023/08/13 00:10:34;;;;;;;13.75;7.35;;;;;;;26.56;54.47;101393.56;6152865;23;20020;-80
2023/08/13 00:13:01;;;;;;;11.20;8.15;;;;;;;26.55;54.69;101402.78;6173615;23;20097;-80
2023/08/13 00:15:28;;;;;;;11.90;7.47;;;;;;;26.64;54.88;101434.13;6159586;23;20027;-79
2023/08/13 00:17:54;;;;;;;9.45;7.45;;;;;;;26.50;55.00;101427.09;6170194;23;20111;-81
2023/08/13 00:20:21;;;;;;;10.93;7.50;;;;;;;26.75;54.94;101456.25;6169426;23;20472;-81
2023/08/13 00:22:52;;;;;;;11.65;7.85;;;;;;;25.95;54.85;101327.06;6152019;23;20044;-80
2023/08/13 00:25:24;;;;;;;13.77;8.07;;;;;;;26.74;54.93;101451.88;6143400;23;20025;-81
2023/08/13 00:27:56;;;;;;;14.02;7.85;;;;;;;26.71;55.09;101455.88;6115003;23;20551;-81
2023/08/13 00:30:23;;;;;;;15.00;8.02;;;;;;;26.60;55.45;101454.72;6136989;23;20020;-81
2023/08/13 00:32:50;;;;;;;10.68;8.45;;;;;;;26.63;55.47;101464.31;6184671;23;20044;-78
2023/08/13 00:35:17;;;;;;;11.30;8.45;;;;;;;26.50;55.56;101435.25;6153631;23;20024;-82
2023/08/13 00:37:44;;;;;;;15.82;8.05;;;;;;;25.96;55.59;101344.22;6143641;23;20024;-81
2023/08/13 00:40:11;;;;;;;10.60;7.78;;;;;;;26.18;55.75;101404.53;6167604;23;20025;-81
2023/08/13 00:42:38;;;;;;;13.57;7.95;;;;;;;26.14;56.06;101412.31;6181672;23;20383;-81
2023/08/13 00:45:05;;;;;;;13.75;8.20;;;;;;;26.26;56.23;101438.81;6182828;23;20016;-80
2023/08/13 00:47:38;;;;;;;13.80;8.48;;;;;;;26.22;56.48;101441.97;6160365;23;20316;-81
2023/08/13 00:50:07;;;;;;;14.80;8.05;;;;;;;26.39;56.33;101452.34;6159189;23;20420;-80
2023/08/13 00:52:34;;;;;;;14.43;8.20;;;;;;;26.32;56.35;101436.03;6170318;23;20337;-80
2023/08/13 00:55:02;;;;;;;9.05;7.00;;;;;;;26.44;56.40;101468.84;6163318;23;20020;-80
2023/08/13 00:57:30;;;;;;;9.00;7.72;;;;;;;26.29;56.54;101441.06;6143442;23;20020;-80
2023/08/13 00:59:57;;;;;;;10.90;7.57;;;;;;;26.23;56.77;101431.91;6185702;23;20607;-81
2023/08/13 01:02:26;;;;;;;13.63;8.65;;;;;;;26.22;56.79;101431.09;6177603;23;20024;-81
2023/08/13 01:04:53;;;;;;;11.52;7.65;;;;;;;26.36;56.89;101464.50;6148706;23;20016;-81
2023/08/13 01:07:47;;;;;;;15.35;8.80;;;;;;;26.39;57.34;101468.66;6170859;23;20557;-81
2023/08/13 01:10:33;;;;;;;16.90;8.52;;;;;;;26.41;57.17;101477.44;6185124;23;20017;-82
2023/08/13 01:13:09;;;;;;;10.95;7.65;;;;;;;26.14;56.58;101412.31;6170819;23;20032;-80
2023/08/13 01:15:38;;;;;;;9.30;7.88;;;;;;;26.40;56.78;101470.31;6150418;23;20104;-80
2023/08/13 01:18:07;;;;;;;11.32;8.90;;;;;;;26.42;56.81;101484.56;6190010;23;20758;-80
2023/08/13 01:20:39;;;;;;;13.70;7.47;;;;;;;26.37;56.93;101477.03;6166704;23;20444;-81
2023/08/13 01:23:05;;;;;;;12.23;8.50;;;;;;;25.57;56.68;101354.25;6173548;23;20052;-80
2023/08/13 01:25:35;;;;;;;12.75;7.57;;;;;;;26.31;56.68;101477.06;6177455;23;20019;-81
2023/08/13 01:28:14;;;;;;;9.63;7.28;;;;;;;26.07;56.76;101449.63;6182664;23;20785;-81
2023/08/13 01:30:47;;;;;;;10.60;7.95;;;;;;;26.14;56.85;101449.56;6155864;23;20020;-80
2023/08/13 01:33:26;;;;;;;11.10;7.68;;;;;;;25.90;56.82;101410.38;6178642;23;20028;-81
2023/08/13 01:36:00;;;;;;;13.00;8.02;;;;;;;26.08;57.14;101445.00;6164402;23;20051;-81
2023/08/13 01:38:28;;;;;;;11.50;7.93;;;;;;;26.04;57.08;101433.72;6173483;23;20092;-80
2023/08/13 01:40:56;;;;;;;9.80;7.93;;;;;;;25.30;57.38;101323.69;6153125;23;20035;-80
2023/08/13 01:43:23;;;;;;;9.88;7.50;;;;;;;26.13;57.67;101456.91;6148472;23;20127;-81
2023/08/13 01:45:54;;;;;;;14.45;9.00;;;;;;;25.91;57.64;101420.22;6177182;23;20024;-79
2023/08/13 01:48:20;;;;;;;11.77;9.30;;;;;;;25.94;57.55;101422.47;6170367;23;20094;-80
2023/08/13 01:50:47;;;;;;;11.10;8.13;;;;;;;25.93;57.85;101416.22;6150907;23;20021;-81
2023/08/13 01:53:14;;;;;;;11.48;8.88;;;;;;;26.03;57.92;101440.22;6165562;23;20052;-80
2023/08/13 01:55:41;;;;;;;13.93;9.98;;;;;;;25.99;58.09;101441.69;6165169;23;20024;-79
2023/08/13 01:58:12;;;;;;;16.73;10.60;;;;;;;25.74;57.85;101401.63;6165559;23;20067;-81
2023/08/13 02:00:40;;;;;;;22.00;11.43;;;;;;;25.94;57.98;101436.09;6179077;23;20107;-80
2023/08/13 02:03:16;;;;;;;18.85;10.40;;;;;;;25.68;58.42;101402.53;6163043;23;20021;-82
2023/08/13 02:05:42;;;;;;;18.60;9.80;;;;;;;25.89;58.54;101444.06;6187886;23;20622;-80
2023/08/13 02:08:09;;;;;;;16.23;10.27;;;;;;;25.73;58.60;101421.75;6180993;23;20753;-80
2023/08/13 02:10:43;;;;;;;13.13;8.52;;;;;;;25.85;58.64;101445.50;6161128;23;20221;-82
2023/08/13 02:13:15;;;;;;;12.45;8.13;;;;;;;25.82;58.71;101437.78;6144163;23;20341;-81
2023/08/13 02:15:42;;;;;;;9.60;8.57;;;;;;;25.64;58.67;101401.28;6133286;23;20376;-81
2023/08/13 02:18:19;;;;;;;13.23;8.23;;;;;;;25.47;58.80;101375.66;6132686;23;20036;-81
2023/08/13 02:20:47;;;;;;;9.27;8.32;;;;;;;25.34;58.81;101369.22;6154137;23;20113;-79
2023/08/13 02:23:14;;;;;;;10.43;8.68;;;;;;;25.79;59.06;101439.91;6148709;23;20024;-82
2023/08/13 02:25:43;;;;;;;14.55;8.95;;;;;;;25.63;59.05;101418.63;6155498;23;20027;-81
2023/08/13 02:28:10;;;;;;;13.20;8.80;;;;;;;25.80;59.17;101440.72;6166934;23;20020;-80
2023/08/13 02:30:38;;;;;;;20.85;8.65;;;;;;;25.76;59.32;101440.34;6160665;23;20381;-80
2023/08/13 02:33:05;;;;;;;9.30;7.80;;;;;;;25.55;59.29;101402.56;6163517;23;20341;-79
2023/08/13 02:35:31;;;;;;;12.85;9.00;;;;;;;25.67;59.24;101419.88;6145339;23;20433;-80
2023/08/13 02:38:08;;;;;;;12.23;9.02;;;;;;;25.70;59.20;101441.19;6171670;23;20238;-82
2023/08/13 02:40:35;;;;;;;8.75;7.40;;;;;;;25.71;59.16;101436.59;6115545;23;20376;-80
2023/08/13 02:43:03;;;;;;;9.02;8.00;;;;;;;25.50;59.07;101399.69;6124349;23;20533;-81
2023/08/13 02:45:30;;;;;;;9.30;8.27;;;;;;;25.54;59.02;101403.63;6135652;23;20029;-80
2023/08/13 02:47:57;;;;;;;9.63;7.88;;;;;;;25.75;58.60;101446.84;6129144;23;20242;-81
2023/08/13 02:50:24;;;;;;;11.50;7.53;;;;;;;25.73;58.76;101448.06;6143703;23;20027;-80
2023/08/13 02:52:51;;;;;;;14.35;8.38;;;;;;;25.72;58.74;101441.81;6188547;23;20020;-80
2023/08/13 02:55:18;;;;;;;9.60;8.10;;;;;;;25.71;59.02;101434.72;6161067;23;20035;-81
2023/08/13 02:57:54;;;;;;;14.38;8.15;;;;;;;25.67;59.16;101438.91;6128568;23;20334;-80
2023/08/13 03:00:44;;;;;;;11.10;8.73;;;;;;;25.59;59.17;101431.00;6126835;23;20212;-80
2023/08/13 03:03:16;;;;;;;13.70;8.40;;;;;;;25.61;59.26;101425.34;6154507;23;20025;-81
2023/08/13 03:05:43;;;;;;;14.82;8.27;;;;;;;25.34;59.14;101380.09;6150896;23;20024;-81
2023/08/13 03:08:12;;;;;;;16.30;9.10;;;;;;;25.47;59.15;101403.66;6108979;23;20310;-81
2023/08/13 03:10:39;;;;;;;9.70;8.20;;;;;;;25.62;59.30;101430.56;6119513;23;20017;-81
2023/08/13 03:13:06;;;;;;;10.75;8.57;;;;;;;25.07;59.38;101340.44;6139200;23;20013;-80
2023/08/13 03:15:33;;;;;;;11.95;8.40;;;;;;;25.52;59.62;101413.88;6138197;23;20095;-80
2023/08/13 03:18:03;;;;;;;9.30;8.15;;;;;;;25.64;59.79;101436.63;6159222;23;20329;-80
2023/08/13 03:20:37;;;;;;;19.77;8.45;;;;;;;25.63;59.79;101445.00;6139268;23;20024;-81
2023/08/13 03:23:19;;;;;;;10.65;8.40;;;;;;;25.52;59.91;101427.47;6115787;23;20448;-81
2023/08/13 03:25:54;;;;;;;11.10;9.68;;;;;;;25.45;60.14;101407.66;6135827;23;20103;-80
2023/08/13 03:28:21;;;;;;;12.63;8.98;;;;;;;25.62;60.03;101436.00;6144819;23;20345;-80
2023/08/13 03:30:48;;;;;;;14.10;9.25;;;;;;;25.37;60.00;101395.13;6130722;23;20108;-79
2023/08/13 03:33:15;;;;;;;11.45;8.98;;;;;;;25.44;60.26;101408.69;6169789;23;20396;-81
2023/08/13 03:35:42;;;;;;;11.02;8.82;;;;;;;25.53;60.44;101435.41;6131030;23;20024;-80
2023/08/13 03:38:14;;;;;;;14.75;9.18;;;;;;;25.26;60.52;101387.66;6170877;23;20044;-81
2023/08/13 03:40:44;;;;;;;11.80;9.40;;;;;;;25.48;60.41;101431.66;6178731;23;20260;-81
2023/08/13 03:43:13;;;;;;;17.63;9.80;;;;;;;25.04;60.14;101363.44;6146877;23;20017;-79
2023/08/13 03:45:42;;;;;;;12.57;9.07;;;;;;;25.43;60.31;101420.63;6172566;23;20017;-79
2023/08/13 03:48:15;;;;;;;11.02;7.95;;;;;;;25.45;60.61;101438.38;6142541;23;20499;-80
2023/08/13 03:50:49;;;;;;;16.80;9.90;;;;;;;25.27;60.88;101422.78;6138298;23;20435;-81
2023/08/13 03:53:36;;;;;;;11.23;8.57;;;;;;;25.37;60.96;101423.16;6133593;23;20379;-81
2023/08/13 03:56:14;;;;;;;22.15;9.25;;;;;;;25.42;61.04;101440.69;6118832;23;20013;-80
2023/08/13 03:58:41;;;;;;;18.30;8.35;;;;;;;25.44;60.72;101438.56;6193271;23;20033;-82
2023/08/13 04:01:08;;;;;;;17.10;9.75;;;;;;;25.44;60.78;101447.59;6187534;23;20092;-81
2023/08/13 04:03:36;;;;;;;12.35;9.30;;;;;;;25.42;61.18;101436.09;6193164;23;20058;-81
2023/08/13 04:06:02;;;;;;;19.70;9.30;;;;;;;25.21;61.14;101430.94;6183387;23;20027;-81
2023/08/13 04:08:29;;;;;;;15.55;10.38;;;;;;;25.27;61.30;101435.50;6166715;23;20327;-82
2023/08/13 04:10:56;;;;;;;9.75;8.75;;;;;;;25.42;60.96;101440.69;6180162;23;20020;-80
2023/08/13 04:13:23;;;;;;;16.45;9.93;;;;;;;25.26;60.67;101421.09;6159668;23;20306;-81
2023/08/13 04:15:49;;;;;;;13.68;9.35;;;;;;;25.25;60.93;101418.59;6184459;23;20020;-81
2023/08/13 04:18:16;;;;;;;13.70;9.85;;;;;;;25.07;60.76;101394.78;6175283;23;20398;-81
2023/08/13 04:20:46;;;;;;;13.05;9.50;;;;;;;25.34;61.11;101449.91;6167546;23;20024;-80
2023/08/13 04:23:13;;;;;;;11.95;9.27;;;;;;;25.01;61.30;101395.66;6169905;23;20244;-83
2023/08/13 04:25:40;;;;;;;11.95;9.13;;;;;;;24.79;60.66;101360.59;6164040;23;20016;-80
2023/08/13 04:28:07;;;;;;;16.70;10.57;;;;;;;25.41;60.68;101455.31;6141415;23;20025;-83
2023/08/13 04:30:34;;;;;;;12.35;10.45;;;;;;;25.30;60.40;101448.69;6157386;23;20310;-83
2023/08/13 04:33:01;;;;;;;12.27;9.85;;;;;;;25.14;60.81;101434.44;6186784;23;20086;-82
2023/08/13 04:35:28;;;;;;;12.70;10.07;;;;;;;25.14;60.73;101434.44;6170667;23;20562;-82
2023/08/13 04:37:55;;;;;;;16.05;10.02;;;;;;;25.45;60.49;101462.00;6181708;23;20024;-82
2023/08/13 04:40:22;;;;;;;15.82;9.88;;;;;;;24.92;60.95;101398.56;6161535;23;20025;-83
2023/08/13 04:42:49;;;;;;;13.90;9.75;;;;;;;25.23;61.43;101465.00;6190774;23;20420;-82
2023/08/13 04:45:15;;;;;;;22.98;10.18;;;;;;;25.01;61.83;101441.81;6133190;23;20023;-82
2023/08/13 04:47:42;;;;;;;12.88;9.25;;;;;;;25.10;61.93;101459.56;6156014;23;20361;-81
2023/08/13 04:50:09;;;;;;;16.77;10.60;;;;;;;24.98;61.94;101444.94;6155181;23;20269;-82
2023/08/13 04:52:36;;;;;;;12.13;10.68;;;;;;;24.76;62.07;101409.91;6146237;23;20020;-81
2023/08/13 04:55:04;;;;;;;13.38;9.73;;;;;;;24.84;62.50;101434.09;6142042;23;20047;-82
2023/08/13 04:57:31;;;;;;;12.05;9.95;;;;;;;24.95;62.63;101452.50;6140930;23;20031;-81
2023/08/13 04:59:59;;;;;;;13.20;10.25;;;;;;;24.85;62.72;101435.75;6177308;23;20094;-79
2023/08/13 05:02:26;;;;;;;12.82;8.98;;;;;;;25.07;62.65;101481.69;6173842;23;20101;-83
2023/08/13 05:04:53;;;;;;;10.43;9.20;;;;;;;24.74;62.05;101395.69;6170745;23;20040;-83
2023/08/13 05:07:20;;;;;;;12.82;10.40;;;;;;;25.09;61.52;101428.81;6160830;23;20027;-82
2023/08/13 05:09:49;;;;;;;12.20;10.75;;;;;;;25.21;61.60;101477.94;6154939;23;20016;-83
2023/08/13 05:12:16;;;;;;;11.30;9.32;;;;;;;25.11;62.03;101469.38;6146919;23;20483;-82
2023/08/13 05:14:43;;;;;;;16.92;10.13;;;;;;;25.11;61.99;101458.50;6161112;23;20021;-81
2023/08/13 05:17:22;;;;;;;11.95;10.23;;;;;;;24.89;62.41;101428.88;6144953;23;20021;-81
2023/08/13 05:19:49;;;;;;;16.83;11.13;;;;;;;25.16;62.54;101475.00;6140021;23;20335;-83
2023/08/13 05:22:16;;;;;;;19.67;10.52;;;;;;;25.14;62.91;101477.09;6137284;23;20386;-82
2023/08/13 05:24:56;;;;;;;21.52;10.85;;;;;;;25.15;63.13;101482.31;6083401;23;20020;-82
2023/08/13 05:27:30;;;;;;;18.55;11.38;;;;;;;25.15;63.03;101473.34;6117185;23;20474;-83
2023/08/13 05:30:03;;;;;;;13.88;10.45;;;;;;;25.00;62.87;101448.28;6114932;23;20526;-82
2023/08/13 05:32:32;;;;;;;12.55;10.30;;;;;;;25.25;62.89;101484.63;6166536;23;20277;-83
2023/08/13 05:34:59;;;;;;;16.30;10.20;;;;;;;25.32;62.76;101482.75;6156497;23;20647;-82
2023/08/13 05:37:26;;;;;;;16.10;10.43;;;;;;;25.29;62.29;101472.31;6150454;23;20025;-82
2023/08/13 05:39:53;;;;;;;14.93;10.70;;;;;;;25.45;62.78;101484.59;6140451;23;20371;-83
2023/08/13 05:42:20;;;;;;;18.08;11.18;;;;;;;25.42;62.84;101481.47;6132398;23;20495;-84
2023/08/13 05:44:47;;;;;;;14.18;10.98;;;;;;;25.46;62.35;101488.13;6157730;23;20374;-82
2023/08/13 05:47:13;;;;;;;21.13;10.23;;;;;;;25.51;61.96;101485.59;6125685;23;20579;-84
2023/08/13 05:49:40;;;;;;;15.50;10.40;;;;;;;25.19;61.99;101425.69;6130357;23;20075;-82
2023/08/13 05:52:08;;;;;;;10.80;9.70;;;;;;;25.58;61.26;101478.25;6137035;23;20017;-82
2023/08/13 05:54:38;;;;;;;16.52;11.07;;;;;;;25.76;60.72;101491.19;6140366;23;20541;-82
2023/08/13 05:57:08;;;;;;;17.80;11.07;;;;;;;25.79;60.55;101488.84;6149846;23;20051;-82
2023/08/13 05:59:34;;;;;;;13.38;10.77;;;;;;;25.70;60.65;101471.09;6138458;23;20275;-82
2023/08/13 06:02:01;;;;;;;14.13;10.48;;;;;;;25.92;60.49;101490.69;6154661;23;20020;-81
2023/08/13 06:04:28;;;;;;;16.98;11.52;;;;;;;25.61;59.83;101426.19;6163633;23;20020;-81
2023/08/13 06:06:55;;;;;;;16.65;11.02;;;;;;;26.07;60.09;101486.84;6133816;23;20376;-83
2023/08/13 06:09:25;;;;;;;18.48;10.88;;;;;;;25.64;60.18;101412.16;6138399;23;20139;-81
2023/08/13 06:11:52;;;;;;;17.13;11.43;;;;;;;25.64;59.75;101398.56;6161843;23;20515;-82
2023/08/13 06:14:19;;;;;;;15.57;10.93;;;;;;;26.25;59.92;101489.69;6177210;23;20450;-82
2023/08/13 06:16:46;;;;;;;14.05;10.15;;;;;;;26.28;58.99;101482.97;6137372;23;20279;-82
2023/08/13 06:19:18;;;;;;;16.98;10.68;;;;;;;26.00;58.40;101429.78;6170637;23;20440;-83
2023/08/13 06:21:45;;;;;;;17.27;10.05;;;;;;;26.10;58.42;101449.19;6163914;23;20675;-81
2023/08/13 06:24:11;;;;;;;11.88;9.32;;;;;;;26.29;57.77;101479.19;6164484;23;20017;-81
2023/08/13 06:26:38;;;;;;;20.02;11.02;;;;;;;26.43;58.30;101494.38;6146820;23;20293;-82
2023/08/13 06:29:08;;;;;;;18.45;11.32;;;;;;;26.51;58.86;101499.56;6150059;23;20640;-82
2023/08/13 06:31:38;;;;;;;13.98;11.40;;;;;;;26.38;58.61;101480.59;6185941;23;20057;-82
2023/08/13 06:34:09;;;;;;;19.63;12.05;;;;;;;26.19;58.35;101436.97;6161538;23;20334;-81
2023/08/13 06:36:35;;;;;;;14.15;11.02;;;;;;;26.72;58.53;101500.28;6162895;23;20016;-82
2023/08/13 06:39:08;;;;;;;14.32;10.93;;;;;;;26.71;57.88;101504.06;6152757;23;20547;-82
2023/08/13 06:41:39;;;;;;;21.80;11.05;;;;;;;26.56;57.64;101475.25;6165453;23;20032;-82
2023/08/13 06:44:20;;;;;;;15.98;9.82;;;;;;;26.67;57.82;101486.50;6157670;23;20044;-80
2023/08/13 06:46:51;;;;;;;15.48;10.18;;;;;;;26.74;57.19;101476.38;6141999;23;20079;-82
2023/08/13 06:49:18;;;;;;;;;;;;;;;26.87;56.72;101519.84;6118352;23;20039;-82
2023/08/13 06:51:48;;;;;;;14.20;10.07;;;;;;;26.80;57.15;101486.38;6174357;23;19952;-83
2023/08/13 06:54:15;;;;;;;11.23;10.00;;;;;;;26.63;57.36;101443.38;6172634;23;20428;-81
2023/08/13 06:56:42;;;;;;;14.52;10.88;;;;;;;27.08;57.14;101503.09;6184437;23;20333;-81
2023/08/13 06:59:09;;;;;;;15.77;10.98;;;;;;;26.88;57.04;101469.75;6154546;23;20378;-81
2023/08/13 07:01:36;;;;;;;19.30;11.13;;;;;;;27.22;56.67;101511.16;6187734;23;20345;-81
2023/08/13 07:04:06;;;;;;;17.58;10.88;;;;;;;27.22;56.27;101516.63;6162155;23;20017;-82
2023/08/13 07:06:33;;;;;;;15.82;11.30;;;;;;;27.22;56.22;101505.72;6135324;23;20453;-82
2023/08/13 07:09:03;;;;;;;12.73;10.57;;;;;;;27.38;55.65;101513.31;6149363;23;20020;-81
2023/08/13 07:11:32;;;;;;;12.32;10.15;;;;;;;26.77;55.44;101410.56;6173788;23;20013;-82
2023/08/13 07:14:03;;;;;;;12.10;9.73;;;;;;;27.51;55.33;101508.78;6161286;23;20028;-82
2023/08/13 07:16:30;;;;;;;14.93;10.17;;;;;;;27.56;55.24;101517.09;6172188;23;20017;-82
2023/08/13 07:18:58;;;;;;;16.20;9.75;;;;;;;27.42;56.45;101481.78;6143649;23;20027;-81
2023/08/13 07:21:25;;;;;;;16.08;9.32;;;;;;;27.62;55.93;101502.53;6143452;23;20021;-83
2023/08/13 07:23:52;;;;;;;12.02;9.00;;;;;;;27.69;55.09;101519.66;6148814;23;20092;-81
2023/08/13 07:26:19;;;;;;;13.27;9.35;;;;;;;27.71;54.94;101514.81;6183117;23;20020;-80
2023/08/13 07:28:46;;;;;;;15.07;10.57;;;;;;;27.76;54.10;101509.50;6133210;23;20132;-81
2023/08/13 07:31:14;;;;;;;12.65;9.70;;;;;;;27.36;53.73;101441.81;6182221;23;20035;-82
2023/08/13 07:33:40;;;;;;;12.57;9.23;;;;;;;27.82;54.39;101514.09;6192598;23;20024;-83
2023/08/13 07:36:07;;;;;;;13.43;9.63;;;;;;;27.97;54.07;101518.31;6169436;23;20556;-81
2023/08/13 07:38:34;;;;;;;11.15;9.13;;;;;;;28.00;54.17;101523.31;6166388;23;20021;-81
2023/08/13 07:41:03;;;;;;;12.48;9.23;;;;;;;27.51;53.55;101429.69;6147333;23;20243;-81
2023/08/13 07:43:31;;;;;;;10.65;9.48;;;;;;;28.08;53.30;101517.53;6173386;23;20457;-81
2023/08/13 07:45:58;;;;;;;15.40;8.15;;;;;;;27.48;53.40;101420.09;6190090;23;20344;-82
2023/08/13 07:48:25;;;;;;;18.17;9.52;;;;;;;28.13;52.56;101520.38;6170568;23;20021;-80
2023/08/13 07:50:54;;;;;;;12.70;8.32;;;;;;;28.07;52.02;101496.75;6137555;23;20472;-81
2023/08/13 07:53:29;;;;;;;9.82;8.77;;;;;;;28.21;51.45;101522.81;6167626;23;20432;-81
2023/08/13 07:56:05;;;;;;;9.52;8.48;;;;;;;28.26;51.59;101525.69;6097473;23;20254;-81
2023/08/13 07:58:31;;;;;;;11.07;8.27;;;;;;;28.09;50.43;101491.91;6145312;23;20028;-80
2023/08/13 08:00:58;;;;;;;13.30;8.27;;;;;;;28.25;50.20;101510.34;6116398;23;20610;-81
2023/08/13 08:03:25;;;;;;;14.77;7.78;;;;;;;28.27;49.49;101502.75;6139466;23;20016;-82
2023/08/13 08:05:52;;;;;;;8.50;6.85;;;;;;;28.38;49.17;101500.31;6137710;23;20094;-83
2023/08/13 08:08:19;;;;;;;8.07;7.28;;;;;;;28.45;48.79;101514.66;6158320;23;20256;-80
2023/08/13 08:10:46;;;;;;;7.75;6.97;;;;;;;27.89;48.86;101413.88;6155589;23;20507;-80
2023/08/13 08:13:13;;;;;;;9.90;7.47;;;;;;;28.60;48.02;101501.47;6155738;23;20044;-80
2023/08/13 08:15:40;;;;;;;8.57;6.35;;;;;;;28.44;47.48;101474.78;6173343;23;20032;-79
2023/08/13 08:18:08;;;;;;;10.70;6.75;;;;;;;28.66;46.66;101503.22;6110409;23;20223;-81
2023/08/13 08:20:38;;;;;;;9.57;6.82;;;;;;;28.72;46.04;101499.56;6165768;23;20021;-80
2023/08/13 08:23:05;;;;;;;9.38;6.80;;;;;;;28.83;45.77;101506.09;6145121;23;20379;-80
2023/08/13 08:25:37;;;;;;;15.32;6.50;;;;;;;28.46;46.14;101453.56;6151086;23;20396;-79
2023/08/13 08:28:04;;;;;;;10.27;6.88;;;;;;;28.37;46.20;101430.38;6149549;23;20017;-79
2023/08/13 08:30:35;;;;;;;10.05;7.25;;;;;;;28.65;47.30;101463.34;6136714;23;20016;-81
2023/08/13 08:33:04;;;;;;;;;;;;;;;28.87;48.28;101499.13;6155714;23;20032;-79
2023/08/13 08:35:33;;;;;;;17.25;8.40;;;;;;;28.70;47.32;101476.28;6168270;23;20320;-79
2023/08/13 08:38:00;;;;;;;7.30;6.63;;;;;;;28.87;47.74;101495.56;6174072;23;20102;-82
2023/08/13 08:40:27;;;;;;;8.13;7.28;;;;;;;28.74;47.39;101459.19;6156483;23;20020;-80
2023/08/13 08:42:57;;;;;;;8.00;7.10;;;;;;;28.74;47.25;101444.69;6133784;23;20099;-83
2023/08/13 08:45:24;;;;;;;7.03;6.05;;;;;;;29.16;45.88;101497.38;6186197;23;20025;-80
2023/08/13 08:47:54;;;;;;;7.60;6.80;;;;;;;29.21;46.12;101495.81;6161609;23;20499;-81
2023/08/13 08:50:21;;;;;;;9.02;6.88;;;;;;;29.14;45.61;101474.88;6185649;23;20095;-81
2023/08/13 08:52:49;;;;;;;8.40;7.03;;;;;;;29.08;45.99;101459.47;6173665;23;20170;-81
2023/08/13 08:55:16;;;;;;;10.93;7.47;;;;;;;29.07;46.14;101452.31;6169428;23;20081;-81
2023/08/13 08:57:43;;;;;;;10.43;6.97;;;;;;;29.33;46.26;101466.56;6187027;23;20036;-82
2023/08/13 09:00:10;;;;;;;8.80;7.35;;;;;;;29.47;45.75;101465.22;6175806;23;20326;-81
2023/08/13 09:02:39;;;;;;;18.95;7.53;;;;;;;29.43;45.51;101458.56;6160041;23;20017;-82
2023/08/13 09:05:07;;;;;;;8.73;7.32;;;;;;;29.86;45.50;101490.13;6172332;23;20021;-82
2023/08/13 09:07:34;;;;;;;9.25;7.88;;;;;;;29.96;45.13;101498.53;6151475;23;20047;-81
2023/08/13 09:10:04;;;;;;;11.43;7.45;;;;;;;30.02;44.95;101491.22;6183089;23;20012;-81
2023/08/13 09:12:41;;;;;;;10.80;7.38;;;;;;;30.16;44.53;101499.97;6155519;23;20266;-81
2023/08/13 09:15:13;;;;;;;8.15;7.35;;;;;;;30.16;44.86;101480.81;6161446;23;20020;-81
2023/08/13 09:17:40;;;;;;;11.63;8.35;;;;;;;30.01;44.36;101456.72;6153157;23;20021;-79
2023/08/13 09:20:19;;;;;;;12.23;8.02;;;;;;;30.21;44.67;101472.69;6133354;23;20421;-81
2023/08/13 09:22:50;;;;;;;10.02;8.35;;;;;;;30.26;43.98;101470.06;6175767;23;20655;-81
2023/08/13 09:25:19;;;;;;;8.43;7.63;;;;;;;30.49;44.05;101493.75;6171345;23;20025;-81
2023/08/13 09:27:51;;;;;;;8.88;8.05;;;;;;;30.02;44.13;101389.94;6161581;23;20452;-80
2023/08/13 09:30:30;;;;;;;9.60;7.95;;;;;;;30.82;43.67;101490.16;6170916;23;20020;-82
2023/08/13 09:32:59;;;;;;;16.52;8.25;;;;;;;30.85;43.41;101505.31;6176762;23;20328;-80
2023/08/13 09:35:30;;;;;;;9.73;8.40;;;;;;;30.91;43.22;101492.53;6168585;23;20028;-81
2023/08/13 09:37:59;;;;;;;10.07;8.85;;;;;;;31.02;43.92;101489.69;6135255;23;20021;-80
2023/08/13 09:40:26;;;;;;;10.93;7.85;;;;;;;31.12;43.72;101489.00;6130437;23;20219;-81
2023/08/13 09:42:56;;;;;;;10.70;9.07;;;;;;;31.19;43.56;101481.44;6136922;23;20024;-81
2023/08/13 09:45:26;;;;;;;10.55;8.85;;;;;;;31.00;43.15;101441.69;6146414;23;20240;-81
2023/08/13 09:47:55;;;;;;;11.70;9.68;;;;;;;31.15;43.77;101477.53;6178634;23;20354;-81
2023/08/13 09:50:26;;;;;;;12.57;9.45;;;;;;;31.19;43.45;101462.25;6174445;23;20074;-80
2023/08/13 09:52:54;;;;;;;10.73;9.13;;;;;;;31.08;43.37;101411.06;6173448;23;20025;-80
2023/08/13 09:55:28;;;;;;;13.88;9.32;;;;;;;31.37;43.33;101452.88;6163778;23;20028;-80
2023/08/13 09:57:58;;;;;;;9.88;8.95;;;;;;;31.51;43.68;101472.56;6167575;23;20021;-81
2023/08/13 10:00:27;;;;;;;12.90;10.57;;;;;;;31.51;43.82;101447.88;6155963;23;20407;-81
2023/08/13 10:02:54;;;;;;;11.27;8.93;;;;;;;31.72;43.19;101457.13;6167448;23;20025;-81
2023/08/13 10:05:21;;;;;;;13.77;9.38;;;;;;;31.69;43.14;101433.78;6138299;23;20440;-81
2023/08/13 10:07:50;;;;;;;15.10;9.73;;;;;;;31.49;42.37;101363.03;6181508;23;20044;-82
2023/08/13 10:10:17;;;;;;;10.40;9.40;;;;;;;31.39;42.58;101329.16;6153590;23;20384;-81
2023/08/13 10:12:44;;;;;;;11.10;9.63;;;;;;;32.20;42.41;101454.66;6183863;23;20157;-81
2023/08/13 10:15:16;;;;;;;12.10;9.75;;;;;;;32.34;42.53;101426.47;6137283;23;20267;-81
2023/08/13 10:17:46;;;;;;;11.65;10.40;;;;;;;32.74;41.59;101468.28;6152612;23;20023;-82
2023/08/13 10:20:13;;;;;;;11.63;9.25;;;;;;;32.82;41.21;101462.31;6145591;23;20067;-82
2023/08/13 10:22:40;;;;;;;11.57;10.48;;;;;;;32.87;40.60;101437.59;6174276;23;20174;-82
2023/08/13 10:25:08;;;;;;;11.98;10.18;;;;;;;33.17;39.92;101436.13;6168777;23;20021;-81
2023/08/13 10:27:37;;;;;;;13.40;9.52;;;;;;;33.24;40.30;101447.72;6138787;23;20448;-81
2023/08/13 10:30:13;;;;;;;13.88;9.43;;;;;;;33.21;40.23;101426.25;6128168;23;20032;-82
2023/08/13 10:33:03;;;;;;;16.88;9.55;;;;;;;33.41;40.18;101447.53;6128625;23;20028;-81
2023/08/13 10:35:34;;;;;;;10.85;9.75;;;;;;;33.63;39.62;101441.84;6143500;23;20409;-81
2023/08/13 10:38:03;;;;;;;13.13;9.90;;;;;;;33.69;39.62;101446.25;6169753;23;20442;-82
2023/08/13 10:40:31;;;;;;;11.27;9.98;;;;;;;33.74;39.67;101437.19;6143736;23;20524;-82
2023/08/13 10:42:59;;;;;;;11.68;9.48;;;;;;;32.77;39.63;101273.41;6144809;23;20024;-80
2023/08/13 10:45:30;;;;;;;12.60;11.35;;;;;;;33.87;39.75;101441.34;6174034;23;20199;-81
2023/08/13 10:48:06;;;;;;;16.88;9.98;;;;;;;33.88;39.94;101423.72;6155457;23;20021;-83
2023/08/13 10:50:36;;;;;;;14.25;10.00;;;;;;;34.11;39.49;101439.78;6158094;23;20083;-83
2023/08/13 10:53:10;;;;;;;10.55;8.93;;;;;;;34.20;38.80;101424.34;6151789;23;20302;-82
2023/08/13 10:55:46;;;;;;;14.52;10.80;;;;;;;34.16;38.68;101403.94;6178369;23;20024;-82
2023/08/13 10:58:39;;;;;;;12.25;9.63;;;;;;;34.32;38.87;101415.78;6125764;23;20310;-82
2023/08/13 11:01:09;;;;;;;13.73;10.20;;;;;;;34.48;38.94;101422.13;6168684;23;20096;-81
2023/08/13 11:04:03;;;;;;;15.10;9.95;;;;;;;34.67;38.02;101425.97;6163117;23;20020;-82
2023/08/13 11:06:33;;;;;;;10.57;9.68;;;;;;;34.77;38.32;101429.81;6128419;23;20277;-81
2023/08/13 11:09:08;;;;;;;11.15;9.93;;;;;;;34.87;38.14;101392.00;6120891;23;20429;-82
2023/08/13 11:11:44;;;;;;;11.00;9.90;;;;;;;35.02;38.04;101410.44;6101025;23;20468;-82
2023/08/13 11:14:11;;;;;;;11.38;9.88;;;;;;;34.96;38.14;101383.16;6155305;23;20017;-81
2023/08/13 11:16:47;;;;;;;15.55;10.07;;;;;;;35.23;37.52;101416.72;6150343;23;20017;-82
2023/08/13 11:19:16;;;;;;;11.38;9.60;;;;;;;35.36;37.40;101420.81;6157734;23;20054;-82
2023/08/13 11:21:43;;;;;;;11.23;9.02;;;;;;;35.48;37.42;101424.06;6096288;23;20099;-83
2023/08/13 11:24:10;;;;;;;12.52;10.07;;;;;;;35.39;36.91;101381.63;6144107;23;20096;-82
2023/08/13 11:26:39;;;;;;;11.85;10.45;;;;;;;35.67;36.70;101391.13;6136546;23;20027;-82